sensor_id;sensor_type;location;lat;lon;timestamp;P1;durP1;ratioP1;P2;durP2;ratioP2
21868;SDS011;11099;41.564;23.296;2023-03-26T00:01:19;11.95;;;9.35;;
21868;SDS011;11099;41.564;23.296;2023-03-26T00:03:45;12.50;;;10.15;;
21868;SDS011;11099;41.564;23.296;2023-03-26T00:06:15;11.50;;;9.52;;
21868;SDS011;11099;41.564;23.296;2023-03-26T00:08:41;12.82;;;10.55;;
21868;SDS011;11099;41.564;23.296;2023-03-26T00:11:07;11.45;;;9.60;;
21868;SDS011;11099;41.564;23.296;2023-03-26T00:13:33;37.05;;;22.15;;
21868;SDS011;11099;41.564;23.296;2023-03-26T00:15:59;26.08;;;17.35;;
21868;SDS011;11099;41.564;23.296;2023-03-26T00:18:24;12.75;;;10.15;;
21868;SDS011;11099;41.564;23.296;2023-03-26T00:20:58;11.18;;;8.55;;
21868;SDS011;11099;41.564;23.296;2023-03-26T00:23:24;9.00;;;7.82;;
21868;SDS011;11099;41.564;23.296;2023-03-26T00:25:51;11.65;;;10.13;;
21868;SDS011;11099;41.564;23.296;2023-03-26T00:28:17;10.82;;;9.75;;
21868;SDS011;11099;41.564;23.296;2023-03-26T00:30:46;10.52;;;9.05;;
21868;SDS011;11099;41.564;23.296;2023-03-26T00:33:11;12.13;;;9.57;;
21868;SDS011;11099;41.564;23.296;2023-03-26T00:35:37;9.55;;;8.55;;
21868;SDS011;11099;41.564;23.296;2023-03-26T00:38:02;8.52;;;7.63;;
21868;SDS011;11099;41.564;23.296;2023-03-26T00:40:27;8.95;;;6.68;;
21868;SDS011;11099;41.564;23.296;2023-03-26T00:42:54;7.25;;;6.13;;
21868;SDS011;11099;41.564;23.296;2023-03-26T00:45:20;7.28;;;6.57;;
21868;SDS011;11099;41.564;23.296;2023-03-26T00:47:46;9.25;;;7.80;;
21868;SDS011;11099;41.564;23.296;2023-03-26T00:50:11;8.77;;;7.15;;
21868;SDS011;11099;41.564;23.296;2023-03-26T00:52:40;7.75;;;6.95;;
21868;SDS011;11099;41.564;23.296;2023-03-26T00:55:06;8.48;;;6.03;;
21868;SDS011;11099;41.564;23.296;2023-03-26T00:57:32;6.60;;;5.95;;
21868;SDS011;11099;41.564;23.296;2023-03-26T00:59:57;7.90;;;6.75;;
21868;SDS011;11099;41.564;23.296;2023-03-26T01:02:24;8.23;;;6.70;;
21868;SDS011;11099;41.564;23.296;2023-03-26T01:04:53;7.63;;;6.78;;
21868;SDS011;11099;41.564;23.296;2023-03-26T01:07:19;6.90;;;6.22;;
21868;SDS011;11099;41.564;23.296;2023-03-26T01:09:46;6.80;;;6.10;;
21868;SDS011;11099;41.564;23.296;2023-03-26T01:12:21;6.82;;;4.93;;
21868;SDS011;11099;41.564;23.296;2023-03-26T01:14:48;5.20;;;4.70;;
21868;SDS011;11099;41.564;23.296;2023-03-26T01:17:14;5.57;;;4.28;;
21868;SDS011;11099;41.564;23.296;2023-03-26T01:22:06;4.10;;;3.67;;
21868;SDS011;11099;41.564;23.296;2023-03-26T01:24:35;4.50;;;4.03;;
21868;SDS011;11099;41.564;23.296;2023-03-26T01:32:18;4.25;;;3.85;;
21868;SDS011;11099;41.564;23.296;2023-03-26T01:35:41;5.70;;;4.03;;
21868;SDS011;11099;41.564;23.296;2023-03-26T01:40:13;5.80;;;4.60;;
21868;SDS011;11099;41.564;23.296;2023-03-26T01:43:25;6.22;;;4.72;;
21868;SDS011;11099;41.564;23.296;2023-03-26T01:45:31;7.90;;;4.30;;
21868;SDS011;11099;41.564;23.296;2023-03-26T01:47:58;5.38;;;4.65;;
21868;SDS011;11099;41.564;23.296;2023-03-26T01:50:23;6.05;;;4.57;;
21868;SDS011;11099;41.564;23.296;2023-03-26T01:52:48;6.28;;;4.78;;
21868;SDS011;11099;41.564;23.296;2023-03-26T01:55:14;8.60;;;4.97;;
21868;SDS011;11099;41.564;23.296;2023-03-26T02:00:28;5.70;;;4.85;;
21868;SDS011;11099;41.564;23.296;2023-03-26T02:05:31;6.22;;;4.93;;
21868;SDS011;11099;41.564;23.296;2023-03-26T02:10:39;6.40;;;5.07;;
21868;SDS011;11099;41.564;23.296;2023-03-26T02:13:05;5.10;;;4.70;;
21868;SDS011;11099;41.564;23.296;2023-03-26T02:15:31;9.88;;;4.57;;
21868;SDS011;11099;41.564;23.296;2023-03-26T02:17:56;8.05;;;5.00;;
21868;SDS011;11099;41.564;23.296;2023-03-26T02:20:24;8.90;;;4.65;;
21868;SDS011;11099;41.564;23.296;2023-03-26T02:22:54;5.43;;;4.75;;
21868;SDS011;11099;41.564;23.296;2023-03-26T02:25:20;6.80;;;4.65;;
21868;SDS011;11099;41.564;23.296;2023-03-26T02:27:45;5.00;;;4.18;;
21868;SDS011;11099;41.564;23.296;2023-03-26T02:30:14;5.97;;;4.45;;
21868;SDS011;11099;41.564;23.296;2023-03-26T02:32:40;5.50;;;4.53;;
21868;SDS011;11099;41.564;23.296;2023-03-26T02:35:07;6.90;;;4.55;;
21868;SDS011;11099;41.564;23.296;2023-03-26T02:37:33;4.65;;;4.07;;
21868;SDS011;11099;41.564;23.296;2023-03-26T02:39:58;4.45;;;4.05;;
21868;SDS011;11099;41.564;23.296;2023-03-26T02:42:24;5.55;;;4.30;;
21868;SDS011;11099;41.564;23.296;2023-03-26T02:44:49;5.10;;;4.25;;
21868;SDS011;11099;41.564;23.296;2023-03-26T02:47:15;5.38;;;4.05;;
21868;SDS011;11099;41.564;23.296;2023-03-26T02:49:40;4.32;;;3.97;;
21868;SDS011;11099;41.564;23.296;2023-03-26T02:52:05;9.73;;;4.20;;
21868;SDS011;11099;41.564;23.296;2023-03-26T02:54:34;5.82;;;4.57;;
21868;SDS011;11099;41.564;23.296;2023-03-26T02:56:59;4.10;;;3.80;;
21868;SDS011;11099;41.564;23.296;2023-03-26T02:59:25;4.45;;;3.50;;
21868;SDS011;11099;41.564;23.296;2023-03-26T03:01:51;5.57;;;3.58;;
21868;SDS011;11099;41.564;23.296;2023-03-26T03:04:17;5.75;;;3.58;;
21868;SDS011;11099;41.564;23.296;2023-03-26T03:06:42;8.13;;;4.00;;
21868;SDS011;11099;41.564;23.296;2023-03-26T03:09:08;5.80;;;3.90;;
21868;SDS011;11099;41.564;23.296;2023-03-26T03:11:34;3.90;;;3.53;;
21868;SDS011;11099;41.564;23.296;2023-03-26T03:14:00;5.57;;;3.85;;
21868;SDS011;11099;41.564;23.296;2023-03-26T03:16:25;5.82;;;4.15;;
21868;SDS011;11099;41.564;23.296;2023-03-26T03:18:51;4.22;;;3.83;;
21868;SDS011;11099;41.564;23.296;2023-03-26T03:21:20;4.15;;;3.65;;
21868;SDS011;11099;41.564;23.296;2023-03-26T03:23:46;4.65;;;3.58;;
21868;SDS011;11099;41.564;23.296;2023-03-26T03:26:12;4.00;;;3.45;;
21868;SDS011;11099;41.564;23.296;2023-03-26T03:28:39;3.78;;;3.47;;
21868;SDS011;11099;41.564;23.296;2023-03-26T03:31:05;4.25;;;3.40;;
21868;SDS011;11099;41.564;23.296;2023-03-26T03:33:33;5.30;;;3.45;;
21868;SDS011;11099;41.564;23.296;2023-03-26T03:35:58;3.30;;;3.00;;
21868;SDS011;11099;41.564;23.296;2023-03-26T03:38:23;5.43;;;3.17;;
21868;SDS011;11099;41.564;23.296;2023-03-26T03:40:49;3.35;;;3.00;;
21868;SDS011;11099;41.564;23.296;2023-03-26T03:43:15;4.43;;;2.78;;
21868;SDS011;11099;41.564;23.296;2023-03-26T03:45:40;3.25;;;3.03;;
21868;SDS011;11099;41.564;23.296;2023-03-26T03:48:05;3.40;;;3.10;;
21868;SDS011;11099;41.564;23.296;2023-03-26T03:50:31;3.55;;;2.80;;
21868;SDS011;11099;41.564;23.296;2023-03-26T03:52:56;2.97;;;2.78;;
21868;SDS011;11099;41.564;23.296;2023-03-26T03:55:23;2.40;;;2.20;;
21868;SDS011;11099;41.564;23.296;2023-03-26T03:57:51;3.45;;;2.78;;
21868;SDS011;11099;41.564;23.296;2023-03-26T04:00:17;3.05;;;2.75;;
21868;SDS011;11099;41.564;23.296;2023-03-26T04:02:42;2.65;;;2.40;;
21868;SDS011;11099;41.564;23.296;2023-03-26T04:05:10;3.05;;;2.75;;
21868;SDS011;11099;41.564;23.296;2023-03-26T04:07:35;3.08;;;2.60;;
21868;SDS011;11099;41.564;23.296;2023-03-26T04:10:01;4.18;;;2.47;;
21868;SDS011;11099;41.564;23.296;2023-03-26T04:12:30;2.17;;;2.08;;
21868;SDS011;11099;41.564;23.296;2023-03-26T04:14:55;3.35;;;1.80;;
21868;SDS011;11099;41.564;23.296;2023-03-26T04:17:21;4.22;;;2.10;;
21868;SDS011;11099;41.564;23.296;2023-03-26T04:19:47;2.10;;;1.90;;
21868;SDS011;11099;41.564;23.296;2023-03-26T04:22:14;3.45;;;2.30;;
21868;SDS011;11099;41.564;23.296;2023-03-26T04:24:42;4.43;;;2.20;;
21868;SDS011;11099;41.564;23.296;2023-03-26T04:27:08;3.47;;;2.53;;
21868;SDS011;11099;41.564;23.296;2023-03-26T04:29:37;4.50;;;2.75;;
21868;SDS011;11099;41.564;23.296;2023-03-26T04:32:07;2.38;;;2.17;;
21868;SDS011;11099;41.564;23.296;2023-03-26T04:34:33;5.15;;;3.00;;
21868;SDS011;11099;41.564;23.296;2023-03-26T04:36:59;3.80;;;2.10;;
21868;SDS011;11099;41.564;23.296;2023-03-26T04:39:25;2.92;;;1.70;;
21868;SDS011;11099;41.564;23.296;2023-03-26T04:41:54;7.50;;;2.38;;
21868;SDS011;11099;41.564;23.296;2023-03-26T04:44:19;6.03;;;3.28;;
21868;SDS011;11099;41.564;23.296;2023-03-26T04:46:47;3.55;;;2.50;;
21868;SDS011;11099;41.564;23.296;2023-03-26T04:49:12;5.97;;;2.30;;
21868;SDS011;11099;41.564;23.296;2023-03-26T04:51:38;4.47;;;2.50;;
21868;SDS011;11099;41.564;23.296;2023-03-26T04:54:06;5.65;;;2.30;;
21868;SDS011;11099;41.564;23.296;2023-03-26T04:59:00;3.75;;;2.45;;
21868;SDS011;11099;41.564;23.296;2023-03-26T05:01:26;2.17;;;1.98;;
21868;SDS011;11099;41.564;23.296;2023-03-26T05:03:55;3.13;;;2.33;;
21868;SDS011;11099;41.564;23.296;2023-03-26T05:06:21;3.47;;;1.98;;
21868;SDS011;11099;41.564;23.296;2023-03-26T05:08:46;2.40;;;1.98;;
21868;SDS011;11099;41.564;23.296;2023-03-26T05:11:11;2.30;;;1.90;;
21868;SDS011;11099;41.564;23.296;2023-03-26T05:13:37;2.97;;;1.63;;
21868;SDS011;11099;41.564;23.296;2023-03-26T05:16:02;2.10;;;1.90;;
21868;SDS011;11099;41.564;23.296;2023-03-26T05:18:28;2.00;;;1.80;;
21868;SDS011;11099;41.564;23.296;2023-03-26T05:20:53;1.88;;;1.58;;
21868;SDS011;11099;41.564;23.296;2023-03-26T05:23:21;2.40;;;1.75;;
21868;SDS011;11099;41.564;23.296;2023-03-26T05:25:46;2.72;;;1.55;;
21868;SDS011;11099;41.564;23.296;2023-03-26T05:28:12;1.83;;;1.38;;
21868;SDS011;11099;41.564;23.296;2023-03-26T05:30:38;2.55;;;1.13;;
21868;SDS011;11099;41.564;23.296;2023-03-26T05:33:03;1.90;;;1.40;;
21868;SDS011;11099;41.564;23.296;2023-03-26T05:35:28;2.40;;;1.10;;
21868;SDS011;11099;41.564;23.296;2023-03-26T05:37:54;4.00;;;1.23;;
21868;SDS011;11099;41.564;23.296;2023-03-26T05:40:19;1.58;;;0.90;;
21868;SDS011;11099;41.564;23.296;2023-03-26T05:42:45;3.08;;;1.05;;
21868;SDS011;11099;41.564;23.296;2023-03-26T05:45:11;1.65;;;1.17;;
21868;SDS011;11099;41.564;23.296;2023-03-26T05:47:37;1.17;;;0.95;;
21868;SDS011;11099;41.564;23.296;2023-03-26T05:50:03;1.40;;;1.30;;
21868;SDS011;11099;41.564;23.296;2023-03-26T05:52:28;2.28;;;1.10;;
21868;SDS011;11099;41.564;23.296;2023-03-26T05:54:53;6.40;;;1.23;;
21868;SDS011;11099;41.564;23.296;2023-03-26T05:57:19;1.55;;;1.40;;
21868;SDS011;11099;41.564;23.296;2023-03-26T05:59:46;3.55;;;1.08;;
21868;SDS011;11099;41.564;23.296;2023-03-26T06:02:12;3.05;;;1.00;;
21868;SDS011;11099;41.564;23.296;2023-03-26T06:04:37;1.30;;;1.05;;
21868;SDS011;11099;41.564;23.296;2023-03-26T06:09:35;3.25;;;0.60;;
21868;SDS011;11099;41.564;23.296;2023-03-26T06:12:03;2.85;;;1.00;;
21868;SDS011;11099;41.564;23.296;2023-03-26T06:14:28;0.68;;;0.60;;
21868;SDS011;11099;41.564;23.296;2023-03-26T06:16:54;0.80;;;0.60;;
21868;SDS011;11099;41.564;23.296;2023-03-26T06:19:19;1.85;;;0.80;;
21868;SDS011;11099;41.564;23.296;2023-03-26T06:21:45;2.13;;;0.52;;
21868;SDS011;11099;41.564;23.296;2023-03-26T06:24:10;0.68;;;0.57;;
21868;SDS011;11099;41.564;23.296;2023-03-26T06:26:35;1.67;;;0.57;;
21868;SDS011;11099;41.564;23.296;2023-03-26T06:29:01;0.60;;;0.60;;
21868;SDS011;11099;41.564;23.296;2023-03-26T06:31:26;1.23;;;0.68;;
21868;SDS011;11099;41.564;23.296;2023-03-26T06:33:52;0.65;;;0.65;;
21868;SDS011;11099;41.564;23.296;2023-03-26T06:36:17;1.38;;;0.80;;
21868;SDS011;11099;41.564;23.296;2023-03-26T06:38:42;1.90;;;0.70;;
21868;SDS011;11099;41.564;23.296;2023-03-26T06:41:08;3.83;;;0.90;;
21868;SDS011;11099;41.564;23.296;2023-03-26T06:43:33;2.20;;;0.70;;
21868;SDS011;11099;41.564;23.296;2023-03-26T06:46:00;1.67;;;0.70;;
21868;SDS011;11099;41.564;23.296;2023-03-26T06:48:26;2.70;;;0.90;;
21868;SDS011;11099;41.564;23.296;2023-03-26T06:50:51;3.28;;;0.68;;
21868;SDS011;11099;41.564;23.296;2023-03-26T06:53:17;0.65;;;0.60;;
21868;SDS011;11099;41.564;23.296;2023-03-26T06:55:43;0.70;;;0.70;;
21868;SDS011;11099;41.564;23.296;2023-03-26T06:58:09;0.93;;;0.60;;
21868;SDS011;11099;41.564;23.296;2023-03-26T07:00:35;1.73;;;1.00;;
21868;SDS011;11099;41.564;23.296;2023-03-26T07:03:03;0.65;;;0.65;;
21868;SDS011;11099;41.564;23.296;2023-03-26T07:05:29;1.30;;;0.88;;
21868;SDS011;11099;41.564;23.296;2023-03-26T07:07:55;3.65;;;0.88;;
21868;SDS011;11099;41.564;23.296;2023-03-26T07:10:20;2.35;;;1.13;;
21868;SDS011;11099;41.564;23.296;2023-03-26T07:12:46;0.82;;;0.70;;
21868;SDS011;11099;41.564;23.296;2023-03-26T07:15:11;3.45;;;0.95;;
21868;SDS011;11099;41.564;23.296;2023-03-26T07:17:37;1.30;;;0.88;;
21868;SDS011;11099;41.564;23.296;2023-03-26T07:20:03;3.03;;;0.80;;
21868;SDS011;11099;41.564;23.296;2023-03-26T07:22:29;4.65;;;1.27;;
21868;SDS011;11099;41.564;23.296;2023-03-26T07:24:55;0.88;;;0.88;;
21868;SDS011;11099;41.564;23.296;2023-03-26T07:29:57;1.17;;;1.08;;
21868;SDS011;11099;41.564;23.296;2023-03-26T07:37:42;2.78;;;0.90;;
21868;SDS011;11099;41.564;23.296;2023-03-26T07:40:33;0.80;;;0.80;;
21868;SDS011;11099;41.564;23.296;2023-03-26T07:45:39;0.90;;;0.90;;
21868;SDS011;11099;41.564;23.296;2023-03-26T07:50:41;2.72;;;0.98;;
21868;SDS011;11099;41.564;23.296;2023-03-26T07:53:06;1.98;;;0.95;;
21868;SDS011;11099;41.564;23.296;2023-03-26T07:55:31;1.33;;;0.95;;
21868;SDS011;11099;41.564;23.296;2023-03-26T07:58:10;1.17;;;1.00;;
21868;SDS011;11099;41.564;23.296;2023-03-26T08:00:47;1.30;;;0.93;;
21868;SDS011;11099;41.564;23.296;2023-03-26T08:03:18;1.10;;;1.10;;
21868;SDS011;11099;41.564;23.296;2023-03-26T08:08:14;1.27;;;1.20;;
21868;SDS011;11099;41.564;23.296;2023-03-26T08:20:48;1.88;;;1.20;;
21868;SDS011;11099;41.564;23.296;2023-03-26T08:25:49;1.40;;;1.30;;
21868;SDS011;11099;41.564;23.296;2023-03-26T08:28:28;1.30;;;1.20;;
21868;SDS011;11099;41.564;23.296;2023-03-26T08:30:57;1.35;;;1.25;;
21868;SDS011;11099;41.564;23.296;2023-03-26T08:33:24;1.52;;;1.42;;
21868;SDS011;11099;41.564;23.296;2023-03-26T08:35:51;2.55;;;1.20;;
21868;SDS011;11099;41.564;23.296;2023-03-26T08:38:17;1.40;;;1.30;;
21868;SDS011;11099;41.564;23.296;2023-03-26T08:51:16;1.23;;;1.13;;
21868;SDS011;11099;41.564;23.296;2023-03-26T08:56:37;1.67;;;1.58;;
21868;SDS011;11099;41.564;23.296;2023-03-26T09:16:57;1.60;;;1.20;;
21868;SDS011;11099;41.564;23.296;2023-03-26T09:22:36;1.75;;;1.40;;
21868;SDS011;11099;41.564;23.296;2023-03-26T09:30:16;1.40;;;1.30;;
21868;SDS011;11099;41.564;23.296;2023-03-26T09:32:57;1.30;;;1.20;;
21868;SDS011;11099;41.564;23.296;2023-03-26T09:40:19;2.20;;;1.50;;
21868;SDS011;11099;41.564;23.296;2023-03-26T09:45:40;1.42;;;1.33;;
21868;SDS011;11099;41.564;23.296;2023-03-26T09:50:47;2.60;;;1.80;;
21868;SDS011;11099;41.564;23.296;2023-03-26T09:55:56;2.65;;;1.63;;
21868;SDS011;11099;41.564;23.296;2023-03-26T09:58:32;1.63;;;1.52;;
21868;SDS011;11099;41.564;23.296;2023-03-26T10:16:59;4.40;;;1.10;;
21868;SDS011;11099;41.564;23.296;2023-03-26T10:24:44;1.00;;;1.00;;
21868;SDS011;11099;41.564;23.296;2023-03-26T10:42:44;1.20;;;0.90;;
21868;SDS011;11099;41.564;23.296;2023-03-26T10:48:08;2.08;;;0.95;;
21868;SDS011;11099;41.564;23.296;2023-03-26T10:53:19;0.98;;;0.82;;
21868;SDS011;11099;41.564;23.296;2023-03-26T10:55:48;1.20;;;1.08;;
21868;SDS011;11099;41.564;23.296;2023-03-26T10:58:17;1.33;;;0.80;;
21868;SDS011;11099;41.564;23.296;2023-03-26T11:00:47;3.90;;;1.00;;
21868;SDS011;11099;41.564;23.296;2023-03-26T11:06:02;1.00;;;1.00;;
21868;SDS011;11099;41.564;23.296;2023-03-26T11:08:47;1.10;;;0.73;;
21868;SDS011;11099;41.564;23.296;2023-03-26T11:17:02;2.05;;;0.60;;
21868;SDS011;11099;41.564;23.296;2023-03-26T11:21:56;1.58;;;0.30;;
21868;SDS011;11099;41.564;23.296;2023-03-26T11:29:24;1.23;;;1.13;;
21868;SDS011;11099;41.564;23.296;2023-03-26T11:34:50;0.88;;;0.80;;
21868;SDS011;11099;41.564;23.296;2023-03-26T11:37:14;3.00;;;0.85;;
21868;SDS011;11099;41.564;23.296;2023-03-26T11:39:48;3.20;;;0.80;;
21868;SDS011;11099;41.564;23.296;2023-03-26T11:42:15;0.57;;;0.57;;
21868;SDS011;11099;41.564;23.296;2023-03-26T11:44:44;2.20;;;0.82;;
21868;SDS011;11099;41.564;23.296;2023-03-26T11:47:10;0.43;;;0.43;;
21868;SDS011;11099;41.564;23.296;2023-03-26T11:52:05;0.60;;;0.60;;
21868;SDS011;11099;41.564;23.296;2023-03-26T11:54:31;1.33;;;0.60;;
21868;SDS011;11099;41.564;23.296;2023-03-26T11:59:25;1.38;;;0.60;;
21868;SDS011;11099;41.564;23.296;2023-03-26T12:01:55;1.55;;;0.60;;
21868;SDS011;11099;41.564;23.296;2023-03-26T12:04:27;0.47;;;0.47;;
21868;SDS011;11099;41.564;23.296;2023-03-26T12:07:03;1.75;;;0.50;;
21868;SDS011;11099;41.564;23.296;2023-03-26T12:09:31;0.85;;;0.80;;
21868;SDS011;11099;41.564;23.296;2023-03-26T12:11:59;0.63;;;0.52;;
21868;SDS011;11099;41.564;23.296;2023-03-26T12:14:27;1.42;;;0.70;;
21868;SDS011;11099;41.564;23.296;2023-03-26T12:17:07;0.57;;;0.57;;
21868;SDS011;11099;41.564;23.296;2023-03-26T12:19:34;0.60;;;0.60;;
21868;SDS011;11099;41.564;23.296;2023-03-26T12:22:00;0.85;;;0.70;;
21868;SDS011;11099;41.564;23.296;2023-03-26T12:24:32;0.70;;;0.50;;
21868;SDS011;11099;41.564;23.296;2023-03-26T12:29:48;0.50;;;0.50;;
21868;SDS011;11099;41.564;23.296;2023-03-26T12:32:14;0.70;;;0.57;;
21868;SDS011;11099;41.564;23.296;2023-03-26T12:34:39;0.50;;;0.50;;
21868;SDS011;11099;41.564;23.296;2023-03-26T12:37:06;0.80;;;0.60;;
21868;SDS011;11099;41.564;23.296;2023-03-26T12:39:36;0.60;;;0.60;;
21868;SDS011;11099;41.564;23.296;2023-03-26T12:42:03;1.27;;;0.50;;
21868;SDS011;11099;41.564;23.296;2023-03-26T12:44:35;0.47;;;0.47;;
21868;SDS011;11099;41.564;23.296;2023-03-26T12:47:27;0.60;;;0.60;;
21868;SDS011;11099;41.564;23.296;2023-03-26T12:49:53;0.30;;;0.30;;
21868;SDS011;11099;41.564;23.296;2023-03-26T12:52:25;1.00;;;0.40;;
21868;SDS011;11099;41.564;23.296;2023-03-26T12:55:00;0.50;;;0.50;;
21868;SDS011;11099;41.564;23.296;2023-03-26T12:57:30;0.65;;;0.57;;
21868;SDS011;11099;41.564;23.296;2023-03-26T13:12:40;0.80;;;0.80;;
21868;SDS011;11099;41.564;23.296;2023-03-26T13:20:25;0.82;;;0.40;;
21868;SDS011;11099;41.564;23.296;2023-03-26T13:22:55;0.40;;;0.40;;
21868;SDS011;11099;41.564;23.296;2023-03-26T13:28:02;0.60;;;0.50;;
21868;SDS011;11099;41.564;23.296;2023-03-26T13:33:26;0.50;;;0.50;;
21868;SDS011;11099;41.564;23.296;2023-03-26T13:51:28;0.43;;;0.43;;
21868;SDS011;11099;41.564;23.296;2023-03-26T13:53:55;0.40;;;0.40;;
21868;SDS011;11099;41.564;23.296;2023-03-26T13:56:24;0.40;;;0.40;;
21868;SDS011;11099;41.564;23.296;2023-03-26T13:58:58;1.67;;;0.40;;
21868;SDS011;11099;41.564;23.296;2023-03-26T14:01:31;0.30;;;0.30;;
21868;SDS011;11099;41.564;23.296;2023-03-26T14:04:01;0.40;;;0.40;;
21868;SDS011;11099;41.564;23.296;2023-03-26T14:08:54;0.60;;;0.60;;
21868;SDS011;11099;41.564;23.296;2023-03-26T14:13:59;0.70;;;0.70;;
21868;SDS011;11099;41.564;23.296;2023-03-26T14:16:35;0.82;;;0.60;;
21868;SDS011;11099;41.564;23.296;2023-03-26T14:19:18;0.95;;;0.70;;
21868;SDS011;11099;41.564;23.296;2023-03-26T14:24:33;0.60;;;0.60;;
21868;SDS011;11099;41.564;23.296;2023-03-26T14:47:46;0.68;;;0.68;;
21868;SDS011;11099;41.564;23.296;2023-03-26T14:53:20;0.43;;;0.43;;
21868;SDS011;11099;41.564;23.296;2023-03-26T15:03:53;1.80;;;0.80;;
21868;SDS011;11099;41.564;23.296;2023-03-26T15:34:28;2.33;;;2.22;;
21868;SDS011;11099;41.564;23.296;2023-03-26T15:50:09;1.88;;;0.95;;
21868;SDS011;11099;41.564;23.296;2023-03-26T15:52:44;2.72;;;1.95;;
21868;SDS011;11099;41.564;23.296;2023-03-26T16:00:26;1.60;;;1.50;;
21868;SDS011;11099;41.564;23.296;2023-03-26T16:10:20;1.90;;;1.80;;
21868;SDS011;11099;41.564;23.296;2023-03-26T16:13:34;5.90;;;1.77;;
21868;SDS011;11099;41.564;23.296;2023-03-26T16:15:33;1.60;;;1.42;;
21868;SDS011;11099;41.564;23.296;2023-03-26T16:20:44;1.50;;;1.40;;
21868;SDS011;11099;41.564;23.296;2023-03-26T16:24:07;1.80;;;1.70;;
21868;SDS011;11099;41.564;23.296;2023-03-26T16:26:10;1.67;;;1.58;;
21868;SDS011;11099;41.564;23.296;2023-03-26T16:36:25;1.95;;;1.80;;
21868;SDS011;11099;41.564;23.296;2023-03-26T16:41:25;4.03;;;1.80;;
21868;SDS011;11099;41.564;23.296;2023-03-26T16:43:58;2.75;;;2.53;;
21868;SDS011;11099;41.564;23.296;2023-03-26T16:48:56;4.70;;;3.20;;
21868;SDS011;11099;41.564;23.296;2023-03-26T16:51:26;3.15;;;2.85;;
21868;SDS011;11099;41.564;23.296;2023-03-26T17:02:02;3.20;;;2.83;;
21868;SDS011;11099;41.564;23.296;2023-03-26T17:04:32;2.72;;;2.50;;
21868;SDS011;11099;41.564;23.296;2023-03-26T17:09:35;1.75;;;1.65;;
21868;SDS011;11099;41.564;23.296;2023-03-26T17:12:25;2.05;;;1.73;;
21868;SDS011;11099;41.564;23.296;2023-03-26T17:20:08;2.22;;;2.05;;
21868;SDS011;11099;41.564;23.296;2023-03-26T17:33:09;8.00;;;7.30;;
21868;SDS011;11099;41.564;23.296;2023-03-26T17:35:44;15.27;;;12.18;;
21868;SDS011;11099;41.564;23.296;2023-03-26T17:38:56;13.27;;;11.88;;
21868;SDS011;11099;41.564;23.296;2023-03-26T17:40:56;7.45;;;6.75;;
21868;SDS011;11099;41.564;23.296;2023-03-26T17:45:59;16.42;;;12.57;;
21868;SDS011;11099;41.564;23.296;2023-03-26T17:48:25;8.27;;;6.20;;
21868;SDS011;11099;41.564;23.296;2023-03-26T17:50:53;4.32;;;3.28;;
21868;SDS011;11099;41.564;23.296;2023-03-26T17:53:23;5.53;;;2.92;;
21868;SDS011;11099;41.564;23.296;2023-03-26T17:55:49;3.88;;;3.58;;
21868;SDS011;11099;41.564;23.296;2023-03-26T17:58:19;1.48;;;1.38;;
21868;SDS011;11099;41.564;23.296;2023-03-26T18:00:48;8.50;;;7.70;;
21868;SDS011;11099;41.564;23.296;2023-03-26T18:03:49;10.45;;;9.18;;
21868;SDS011;11099;41.564;23.296;2023-03-26T18:06:09;16.73;;;13.60;;
21868;SDS011;11099;41.564;23.296;2023-03-26T18:16:58;25.05;;;19.40;;
21868;SDS011;11099;41.564;23.296;2023-03-26T18:19:25;21.15;;;18.23;;
21868;SDS011;11099;41.564;23.296;2023-03-26T18:21:51;25.77;;;22.73;;
21868;SDS011;11099;41.564;23.296;2023-03-26T18:24:31;35.25;;;31.50;;
21868;SDS011;11099;41.564;23.296;2023-03-26T18:26:57;19.52;;;17.38;;
21868;SDS011;11099;41.564;23.296;2023-03-26T18:29:26;16.08;;;14.45;;
21868;SDS011;11099;41.564;23.296;2023-03-26T18:31:56;27.33;;;23.60;;
21868;SDS011;11099;41.564;23.296;2023-03-26T18:34:24;15.93;;;13.07;;
21868;SDS011;11099;41.564;23.296;2023-03-26T18:36:57;5.07;;;3.63;;
21868;SDS011;11099;41.564;23.296;2023-03-26T18:39:25;6.90;;;5.88;;
21868;SDS011;11099;41.564;23.296;2023-03-26T18:41:50;8.10;;;5.88;;
21868;SDS011;11099;41.564;23.296;2023-03-26T18:44:16;5.35;;;4.70;;
21868;SDS011;11099;41.564;23.296;2023-03-26T18:46:42;12.45;;;7.60;;
21868;SDS011;11099;41.564;23.296;2023-03-26T18:49:09;9.73;;;5.80;;
21868;SDS011;11099;41.564;23.296;2023-03-26T18:51:36;34.50;;;22.67;;
21868;SDS011;11099;41.564;23.296;2023-03-26T18:54:02;5.50;;;4.65;;
21868;SDS011;11099;41.564;23.296;2023-03-26T18:56:30;3.50;;;3.20;;
21868;SDS011;11099;41.564;23.296;2023-03-26T18:58:57;3.30;;;3.00;;
21868;SDS011;11099;41.564;23.296;2023-03-26T19:01:23;3.38;;;3.08;;
21868;SDS011;11099;41.564;23.296;2023-03-26T19:03:49;8.05;;;6.40;;
21868;SDS011;11099;41.564;23.296;2023-03-26T19:06:16;21.55;;;13.30;;
21868;SDS011;11099;41.564;23.296;2023-03-26T19:08:44;28.45;;;17.88;;
21868;SDS011;11099;41.564;23.296;2023-03-26T19:11:10;25.17;;;14.40;;
21868;SDS011;11099;41.564;23.296;2023-03-26T19:13:38;23.85;;;14.27;;
21868;SDS011;11099;41.564;23.296;2023-03-26T19:16:40;1.92;;;1.70;;
21868;SDS011;11099;41.564;23.296;2023-03-26T19:19:04;3.50;;;3.20;;
21868;SDS011;11099;41.564;23.296;2023-03-26T19:21:31;4.30;;;2.33;;
21868;SDS011;11099;41.564;23.296;2023-03-26T19:23:57;9.77;;;6.47;;
21868;SDS011;11099;41.564;23.296;2023-03-26T19:26:22;11.88;;;9.88;;
21868;SDS011;11099;41.564;23.296;2023-03-26T19:28:48;2.13;;;2.00;;
21868;SDS011;11099;41.564;23.296;2023-03-26T19:36:35;6.18;;;5.22;;
21868;SDS011;11099;41.564;23.296;2023-03-26T19:39:12;7.97;;;7.15;;
21868;SDS011;11099;41.564;23.296;2023-03-26T19:41:39;9.80;;;7.50;;
21868;SDS011;11099;41.564;23.296;2023-03-26T19:44:25;17.70;;;14.73;;
21868;SDS011;11099;41.564;23.296;2023-03-26T19:46:51;25.27;;;20.27;;
21868;SDS011;11099;41.564;23.296;2023-03-26T19:49:30;15.68;;;11.93;;
21868;SDS011;11099;41.564;23.296;2023-03-26T19:52:12;3.97;;;3.60;;
21868;SDS011;11099;41.564;23.296;2023-03-26T19:54:52;6.50;;;5.63;;
21868;SDS011;11099;41.564;23.296;2023-03-26T19:57:21;3.63;;;3.33;;
21868;SDS011;11099;41.564;23.296;2023-03-26T19:59:47;3.05;;;2.85;;
21868;SDS011;11099;41.564;23.296;2023-03-26T20:02:13;5.50;;;4.38;;
21868;SDS011;11099;41.564;23.296;2023-03-26T20:04:39;6.47;;;5.40;;
21868;SDS011;11099;41.564;23.296;2023-03-26T20:07:12;6.20;;;5.60;;
21868;SDS011;11099;41.564;23.296;2023-03-26T20:09:41;6.28;;;5.68;;
21868;SDS011;11099;41.564;23.296;2023-03-26T20:12:08;5.25;;;4.28;;
21868;SDS011;11099;41.564;23.296;2023-03-26T20:14:33;3.42;;;3.05;;
21868;SDS011;11099;41.564;23.296;2023-03-26T20:16:59;4.35;;;2.90;;
21868;SDS011;11099;41.564;23.296;2023-03-26T20:19:25;3.55;;;3.25;;
21868;SDS011;11099;41.564;23.296;2023-03-26T20:21:51;2.42;;;2.22;;
21868;SDS011;11099;41.564;23.296;2023-03-26T20:24:17;2.00;;;1.88;;
21868;SDS011;11099;41.564;23.296;2023-03-26T20:26:43;3.25;;;2.95;;
21868;SDS011;11099;41.564;23.296;2023-03-26T20:29:09;1.73;;;1.60;;
21868;SDS011;11099;41.564;23.296;2023-03-26T20:31:34;4.80;;;3.50;;
21868;SDS011;11099;41.564;23.296;2023-03-26T20:33:59;3.78;;;2.35;;
21868;SDS011;11099;41.564;23.296;2023-03-26T20:36:25;1.35;;;1.25;;
21868;SDS011;11099;41.564;23.296;2023-03-26T20:38:53;1.63;;;1.10;;
21868;SDS011;11099;41.564;23.296;2023-03-26T20:41:20;5.45;;;3.80;;
21868;SDS011;11099;41.564;23.296;2023-03-26T20:43:46;6.97;;;4.53;;